Terminal Aerodrome Forecast
Issued by NWS

Home | Current Version | Previous Version | Text Only | Print | Product List | Glossary Off
Versions: 1 2 3 4 5 6 7 8 9 10 11 12 13 14 15 16 17

000
FTUS41 KCLE 242028 AAA
TAFFDY
TAF AMD
KFDY 242028Z 2420/2518 20012G20KT P6SM SCT035 OVC150
     FM242200 22010KT P6SM BKN035 OVC080
      TEMPO 2422/2501 2SM -TSRA OVC015CB
     FM250100 22006KT P6SM OVC035
     FM250900 23006KT 3SM BR SCT012 OVC020
     FM251400 24010KT P6SM SCT020 BKN035=

USA.gov is the U.S. government's official web portal to all federal, state and local government web resources and services.